Kalamazoo, Michigan
Current Conditions -  °F | °C
As of 8:53 AM on Sunday 23 Nov 2014 (Local Time) from KAZO Reporting Station
Overcast Overcast  
Wind Chill: 43°   Ceiling: 4300
Heat Index: 48°   Visibility: 10mi
Dew Point: 43°   Wind: 10mph
Humidity: 83%   Direction: 180°S
Pressure: 29.85"   Gusts: NA
Location:  42.29°N, 85.6°W
Report Text: KAZO 231353Z 18009KT 10SM BKN043 OVC050 09/06 A2985 RMK AO2 SLP113 T00890061
Loading
Personal Weather Stations






























Interactive Weather Map New forecast layout! Learn more

10-Day Weather Forecast

Advertisements
Track Severe Weather on mobile